sensor_id;sensor_type;location;lat;lon;timestamp;pressure;altitude;pressure_sealevel;temperature;humidity
28004;BME280;15330;51.234;6.754;2023-04-26T00:00:12;101360.97;;;6.67;80.12
28004;BME280;15330;51.234;6.754;2023-04-26T00:02:38;101363.28;;;6.71;80.96
28004;BME280;15330;51.234;6.754;2023-04-26T00:05:05;101354.47;;;6.71;80.16
28004;BME280;15330;51.234;6.754;2023-04-26T00:07:31;101357.34;;;6.68;79.94
28004;BME280;15330;51.234;6.754;2023-04-26T00:09:57;101354.69;;;6.68;79.73
28004;BME280;15330;51.234;6.754;2023-04-26T00:12:22;101359.06;;;6.69;79.92
28004;BME280;15330;51.234;6.754;2023-04-26T00:14:48;101350.84;;;6.60;80.07
28004;BME280;15330;51.234;6.754;2023-04-26T00:17:13;101352.44;;;6.52;80.76
28004;BME280;15330;51.234;6.754;2023-04-26T00:19:38;101352.34;;;6.53;80.30
28004;BME280;15330;51.234;6.754;2023-04-26T00:22:04;101349.91;;;6.50;79.93
28004;BME280;15330;51.234;6.754;2023-04-26T00:24:30;101351.22;;;6.56;80.84
28004;BME280;15330;51.234;6.754;2023-04-26T00:26:56;101344.38;;;6.53;80.25
28004;BME280;15330;51.234;6.754;2023-04-26T00:29:22;101345.06;;;6.55;81.13
28004;BME280;15330;51.234;6.754;2023-04-26T00:31:47;101344.00;;;6.47;81.00
28004;BME280;15330;51.234;6.754;2023-04-26T00:34:13;101337.72;;;6.37;81.14
28004;BME280;15330;51.234;6.754;2023-04-26T00:36:38;101337.59;;;6.49;81.14
28004;BME280;15330;51.234;6.754;2023-04-26T00:39:04;101335.56;;;6.42;81.65
28004;BME280;15330;51.234;6.754;2023-04-26T00:41:29;101329.50;;;6.51;81.33
28004;BME280;15330;51.234;6.754;2023-04-26T00:43:54;101334.72;;;6.30;81.56
28004;BME280;15330;51.234;6.754;2023-04-26T00:46:21;101336.88;;;6.36;81.93
28004;BME280;15330;51.234;6.754;2023-04-26T00:48:47;101333.88;;;6.30;81.54
28004;BME280;15330;51.234;6.754;2023-04-26T00:51:13;101333.25;;;6.37;82.12
28004;BME280;15330;51.234;6.754;2023-04-26T00:53:38;101335.19;;;6.35;81.89
28004;BME280;15330;51.234;6.754;2023-04-26T00:56:08;101328.19;;;6.34;81.43
28004;BME280;15330;51.234;6.754;2023-04-26T00:58:36;101328.19;;;6.34;82.49
28004;BME280;15330;51.234;6.754;2023-04-26T01:01:01;101329.91;;;6.13;82.89
28004;BME280;15330;51.234;6.754;2023-04-26T01:03:27;101336.78;;;6.15;82.42
28004;BME280;15330;51.234;6.754;2023-04-26T01:05:53;101337.41;;;6.19;83.58
28004;BME280;15330;51.234;6.754;2023-04-26T01:08:18;101335.94;;;6.26;83.59
28004;BME280;15330;51.234;6.754;2023-04-26T01:10:48;101342.81;;;6.17;83.43
28004;BME280;15330;51.234;6.754;2023-04-26T01:13:14;101341.25;;;6.15;83.94
28004;BME280;15330;51.234;6.754;2023-04-26T01:15:49;101347.06;;;6.20;83.90
28004;BME280;15330;51.234;6.754;2023-04-26T01:18:15;101344.13;;;6.23;83.78
28004;BME280;15330;51.234;6.754;2023-04-26T01:20:41;101355.75;;;6.22;83.84
28004;BME280;15330;51.234;6.754;2023-04-26T01:23:08;101349.59;;;6.21;84.19
28004;BME280;15330;51.234;6.754;2023-04-26T01:25:34;101346.78;;;6.23;83.94
28004;BME280;15330;51.234;6.754;2023-04-26T01:27:59;101346.56;;;6.15;84.28
28004;BME280;15330;51.234;6.754;2023-04-26T01:30:25;101354.41;;;6.16;84.67
28004;BME280;15330;51.234;6.754;2023-04-26T01:32:50;101349.22;;;6.04;85.09
28004;BME280;15330;51.234;6.754;2023-04-26T01:35:16;101358.66;;;6.08;84.90
28004;BME280;15330;51.234;6.754;2023-04-26T01:37:42;101343.69;;;6.07;84.71
28004;BME280;15330;51.234;6.754;2023-04-26T01:40:08;101350.34;;;6.12;85.04
28004;BME280;15330;51.234;6.754;2023-04-26T01:42:34;101353.00;;;6.01;85.26
28004;BME280;15330;51.234;6.754;2023-04-26T01:44:59;101348.88;;;6.08;85.59
28004;BME280;15330;51.234;6.754;2023-04-26T01:47:25;101353.34;;;6.08;85.34
28004;BME280;15330;51.234;6.754;2023-04-26T01:49:51;101346.09;;;5.99;86.13
28004;BME280;15330;51.234;6.754;2023-04-26T01:52:16;101346.72;;;5.91;85.86
28004;BME280;15330;51.234;6.754;2023-04-26T01:54:41;101332.28;;;5.82;86.10
28004;BME280;15330;51.234;6.754;2023-04-26T01:57:07;101348.38;;;5.92;86.00
28004;BME280;15330;51.234;6.754;2023-04-26T01:59:32;101345.13;;;6.00;86.37
28004;BME280;15330;51.234;6.754;2023-04-26T02:01:58;101337.63;;;5.94;86.79
28004;BME280;15330;51.234;6.754;2023-04-26T02:04:24;101345.38;;;5.97;86.44
28004;BME280;15330;51.234;6.754;2023-04-26T02:06:49;101348.47;;;5.79;86.13
28004;BME280;15330;51.234;6.754;2023-04-26T02:09:15;101343.78;;;5.94;86.72
28004;BME280;15330;51.234;6.754;2023-04-26T02:11:40;101347.19;;;5.96;86.95
28004;BME280;15330;51.234;6.754;2023-04-26T02:14:05;101349.78;;;5.85;86.19
28004;BME280;15330;51.234;6.754;2023-04-26T02:16:31;101336.53;;;5.85;85.78
28004;BME280;15330;51.234;6.754;2023-04-26T02:18:57;101340.63;;;5.78;86.27
28004;BME280;15330;51.234;6.754;2023-04-26T02:21:23;101352.69;;;5.71;87.24
28004;BME280;15330;51.234;6.754;2023-04-26T02:23:49;101340.38;;;5.70;87.13
28004;BME280;15330;51.234;6.754;2023-04-26T02:26:14;101346.28;;;5.73;86.82
28004;BME280;15330;51.234;6.754;2023-04-26T02:28:40;101345.31;;;5.63;87.15
28004;BME280;15330;51.234;6.754;2023-04-26T02:31:06;101353.41;;;5.73;87.29
28004;BME280;15330;51.234;6.754;2023-04-26T02:33:32;101346.41;;;5.83;86.95
28004;BME280;15330;51.234;6.754;2023-04-26T02:35:57;101342.78;;;5.84;87.19
28004;BME280;15330;51.234;6.754;2023-04-26T02:38:24;101321.44;;;5.74;86.77
28004;BME280;15330;51.234;6.754;2023-04-26T02:40:59;101340.75;;;5.76;87.41
28004;BME280;15330;51.234;6.754;2023-04-26T02:43:25;101344.13;;;5.67;88.28
28004;BME280;15330;51.234;6.754;2023-04-26T02:45:50;101337.97;;;5.67;88.38
28004;BME280;15330;51.234;6.754;2023-04-26T02:48:16;101342.41;;;5.66;87.53
28004;BME280;15330;51.234;6.754;2023-04-26T02:50:41;101335.19;;;5.68;87.82
28004;BME280;15330;51.234;6.754;2023-04-26T02:53:07;101343.25;;;5.67;87.59
28004;BME280;15330;51.234;6.754;2023-04-26T02:55:32;101341.47;;;5.67;87.51
28004;BME280;15330;51.234;6.754;2023-04-26T02:57:57;101340.09;;;5.62;87.98
28004;BME280;15330;51.234;6.754;2023-04-26T03:00:23;101328.31;;;5.66;88.46
28004;BME280;15330;51.234;6.754;2023-04-26T03:02:49;101341.06;;;5.61;88.59
28004;BME280;15330;51.234;6.754;2023-04-26T03:05:14;101337.34;;;5.63;88.24
28004;BME280;15330;51.234;6.754;2023-04-26T03:07:40;101336.97;;;5.45;88.56
28004;BME280;15330;51.234;6.754;2023-04-26T03:10:05;101336.97;;;5.45;88.63
28004;BME280;15330;51.234;6.754;2023-04-26T03:12:32;101329.03;;;5.22;89.31
28004;BME280;15330;51.234;6.754;2023-04-26T03:14:58;101330.56;;;5.37;89.32
28004;BME280;15330;51.234;6.754;2023-04-26T03:17:23;101329.22;;;5.42;89.78
28004;BME280;15330;51.234;6.754;2023-04-26T03:19:48;101326.81;;;5.39;89.40
28004;BME280;15330;51.234;6.754;2023-04-26T03:22:14;101333.19;;;5.37;89.17
28004;BME280;15330;51.234;6.754;2023-04-26T03:24:44;101324.38;;;5.25;89.15
28004;BME280;15330;51.234;6.754;2023-04-26T03:27:10;101320.97;;;5.23;89.90
28004;BME280;15330;51.234;6.754;2023-04-26T03:29:35;101314.22;;;5.30;89.91
28004;BME280;15330;51.234;6.754;2023-04-26T03:32:01;101310.41;;;5.34;89.54
28004;BME280;15330;51.234;6.754;2023-04-26T03:34:26;101313.06;;;5.34;89.08
28004;BME280;15330;51.234;6.754;2023-04-26T03:36:52;101309.44;;;5.35;89.41
28004;BME280;15330;51.234;6.754;2023-04-26T03:39:17;101314.22;;;5.30;89.06
28004;BME280;15330;51.234;6.754;2023-04-26T03:41:43;101316.88;;;5.30;89.61
28004;BME280;15330;51.234;6.754;2023-04-26T03:44:08;101314.22;;;5.30;89.84
28004;BME280;15330;51.234;6.754;2023-04-26T03:46:33;101314.00;;;5.33;89.79
28004;BME280;15330;51.234;6.754;2023-04-26T03:48:59;101311.13;;;5.36;89.56
28004;BME280;15330;51.234;6.754;2023-04-26T03:51:24;101319.22;;;5.35;89.84
28004;BME280;15330;51.234;6.754;2023-04-26T03:53:51;101311.00;;;5.27;90.04
28004;BME280;15330;51.234;6.754;2023-04-26T03:56:16;101311.22;;;5.24;89.87
28004;BME280;15330;51.234;6.754;2023-04-26T03:58:42;101312.91;;;5.25;90.34
28004;BME280;15330;51.234;6.754;2023-04-26T04:01:07;101313.38;;;5.19;90.20
28004;BME280;15330;51.234;6.754;2023-04-26T04:03:32;101314.38;;;4.94;91.18
28004;BME280;15330;51.234;6.754;2023-04-26T04:05:58;101317.88;;;4.94;91.67
28004;BME280;15330;51.234;6.754;2023-04-26T04:08:23;101316.69;;;4.98;91.66
28004;BME280;15330;51.234;6.754;2023-04-26T04:10:49;101321.63;;;5.03;91.00
28004;BME280;15330;51.234;6.754;2023-04-26T04:13:14;101328.06;;;5.11;90.91
28004;BME280;15330;51.234;6.754;2023-04-26T04:15:40;101323.47;;;5.13;91.88
28004;BME280;15330;51.234;6.754;2023-04-26T04:18:05;101321.53;;;5.04;91.29
28004;BME280;15330;51.234;6.754;2023-04-26T04:20:31;101323.97;;;5.07;91.81
28004;BME280;15330;51.234;6.754;2023-04-26T04:22:56;101319.66;;;5.18;90.24
28004;BME280;15330;51.234;6.754;2023-04-26T04:25:26;101321.59;;;5.27;90.22
28004;BME280;15330;51.234;6.754;2023-04-26T04:27:55;101329.81;;;5.35;90.25
28004;BME280;15330;51.234;6.754;2023-04-26T04:30:20;101338.72;;;5.34;90.09
28004;BME280;15330;51.234;6.754;2023-04-26T04:32:46;101334.53;;;5.42;90.52
28004;BME280;15330;51.234;6.754;2023-04-26T04:35:12;101341.81;;;5.63;91.18
28004;BME280;15330;51.234;6.754;2023-04-26T04:37:37;101344.41;;;6.20;90.63
28004;BME280;15330;51.234;6.754;2023-04-26T04:40:03;101337.97;;;6.34;89.56
28004;BME280;15330;51.234;6.754;2023-04-26T04:42:29;101333.88;;;5.85;88.37
28004;BME280;15330;51.234;6.754;2023-04-26T04:44:54;101339.63;;;5.57;88.87
28004;BME280;15330;51.234;6.754;2023-04-26T04:47:21;101346.78;;;5.67;89.65
28004;BME280;15330;51.234;6.754;2023-04-26T04:49:46;101342.41;;;5.66;89.17
28004;BME280;15330;51.234;6.754;2023-04-26T04:52:11;101349.88;;;5.61;89.19
28004;BME280;15330;51.234;6.754;2023-04-26T04:54:37;101346.09;;;5.99;91.88
28004;BME280;15330;51.234;6.754;2023-04-26T04:57:02;101342.94;;;6.38;91.14
28004;BME280;15330;51.234;6.754;2023-04-26T04:59:28;101341.25;;;6.15;90.99
28004;BME280;15330;51.234;6.754;2023-04-26T05:01:54;101343.31;;;6.11;90.44
28004;BME280;15330;51.234;6.754;2023-04-26T05:04:20;101346.22;;;6.19;90.10
28004;BME280;15330;51.234;6.754;2023-04-26T05:06:45;101355.41;;;5.47;91.70
28004;BME280;15330;51.234;6.754;2023-04-26T05:09:11;101360.50;;;5.72;90.96
28004;BME280;15330;51.234;6.754;2023-04-26T05:11:36;101356.47;;;5.91;90.37
28004;BME280;15330;51.234;6.754;2023-04-26T05:14:02;101364.75;;;5.75;89.56
28004;BME280;15330;51.234;6.754;2023-04-26T05:16:27;101369.88;;;5.89;90.41
28004;BME280;15330;51.234;6.754;2023-04-26T05:18:52;101361.91;;;6.00;90.45
28004;BME280;15330;51.234;6.754;2023-04-26T05:21:18;101365.72;;;5.85;90.45
28004;BME280;15330;51.234;6.754;2023-04-26T05:23:43;101368.91;;;5.90;89.75
28004;BME280;15330;51.234;6.754;2023-04-26T05:26:15;101370.00;;;5.99;89.79
28004;BME280;15330;51.234;6.754;2023-04-26T05:28:41;101370.59;;;6.13;88.61
28004;BME280;15330;51.234;6.754;2023-04-26T05:31:10;101379.16;;;6.39;88.17
28004;BME280;15330;51.234;6.754;2023-04-26T05:33:36;101383.13;;;6.34;86.53
28004;BME280;15330;51.234;6.754;2023-04-26T05:36:01;101378.19;;;6.51;87.14
28004;BME280;15330;51.234;6.754;2023-04-26T05:38:27;101379.75;;;6.54;87.01
28004;BME280;15330;51.234;6.754;2023-04-26T05:40:52;101383.66;;;6.93;85.62
28004;BME280;15330;51.234;6.754;2023-04-26T05:43:18;101385.25;;;7.16;85.98
28004;BME280;15330;51.234;6.754;2023-04-26T05:45:54;101384.63;;;7.45;84.96
28004;BME280;15330;51.234;6.754;2023-04-26T05:48:21;101381.69;;;7.68;82.00
28004;BME280;15330;51.234;6.754;2023-04-26T05:50:47;101389.97;;;7.45;82.19
28004;BME280;15330;51.234;6.754;2023-04-26T05:53:13;101394.75;;;7.92;82.14
28004;BME280;15330;51.234;6.754;2023-04-26T05:55:40;101391.06;;;7.84;81.00
28004;BME280;15330;51.234;6.754;2023-04-26T05:58:06;101392.75;;;8.36;81.08
28004;BME280;15330;51.234;6.754;2023-04-26T06:00:32;101388.06;;;8.68;79.34
28004;BME280;15330;51.234;6.754;2023-04-26T06:02:57;101398.13;;;7.53;81.74
28004;BME280;15330;51.234;6.754;2023-04-26T06:05:22;101391.59;;;8.78;79.08
28004;BME280;15330;51.234;6.754;2023-04-26T06:07:48;101397.69;;;9.38;77.42
28004;BME280;15330;51.234;6.754;2023-04-26T06:10:14;101398.78;;;8.88;76.08
28004;BME280;15330;51.234;6.754;2023-04-26T06:12:39;101405.97;;;9.64;75.87
28004;BME280;15330;51.234;6.754;2023-04-26T06:15:05;101402.34;;;10.21;75.83
28004;BME280;15330;51.234;6.754;2023-04-26T06:17:30;101400.72;;;10.38;73.38
28004;BME280;15330;51.234;6.754;2023-04-26T06:19:56;101405.31;;;10.73;73.62
28004;BME280;15330;51.234;6.754;2023-04-26T06:22:21;101409.28;;;10.96;71.93
28004;BME280;15330;51.234;6.754;2023-04-26T06:24:46;101408.94;;;10.08;68.92
28004;BME280;15330;51.234;6.754;2023-04-26T06:27:12;101413.72;;;9.38;72.35
28004;BME280;15330;51.234;6.754;2023-04-26T06:29:37;101416.94;;;9.51;73.51
28004;BME280;15330;51.234;6.754;2023-04-26T06:32:03;101419.25;;;10.03;71.29
28004;BME280;15330;51.234;6.754;2023-04-26T06:34:28;101415.91;;;9.91;71.11
28004;BME280;15330;51.234;6.754;2023-04-26T06:36:54;101418.63;;;10.28;70.62
28004;BME280;15330;51.234;6.754;2023-04-26T06:39:19;101411.84;;;9.68;70.60
28004;BME280;15330;51.234;6.754;2023-04-26T06:41:45;101411.97;;;10.69;69.18
28004;BME280;15330;51.234;6.754;2023-04-26T06:44:10;101411.63;;;10.17;69.20
28004;BME280;15330;51.234;6.754;2023-04-26T06:46:36;101415.91;;;9.91;71.37
28004;BME280;15330;51.234;6.754;2023-04-26T06:49:02;101406.75;;;10.95;68.36
28004;BME280;15330;51.234;6.754;2023-04-26T06:51:27;101402.34;;;10.12;68.62
28004;BME280;15330;51.234;6.754;2023-04-26T06:53:54;101402.81;;;10.44;67.55
28004;BME280;15330;51.234;6.754;2023-04-26T06:56:19;101404.59;;;10.26;69.21
28004;BME280;15330;51.234;6.754;2023-04-26T06:58:59;101408.44;;;10.41;66.73
28004;BME280;15330;51.234;6.754;2023-04-26T07:01:26;101409.97;;;11.16;67.48
28004;BME280;15330;51.234;6.754;2023-04-26T07:03:56;101414.50;;;11.51;64.92
28004;BME280;15330;51.234;6.754;2023-04-26T07:06:23;101413.47;;;12.13;65.38
28004;BME280;15330;51.234;6.754;2023-04-26T07:08:48;101419.81;;;11.87;64.25
28004;BME280;15330;51.234;6.754;2023-04-26T07:11:14;101413.19;;;11.99;64.16
28004;BME280;15330;51.234;6.754;2023-04-26T07:13:39;101422.59;;;12.63;63.66
28004;BME280;15330;51.234;6.754;2023-04-26T07:16:05;101403.06;;;12.44;63.32
28004;BME280;15330;51.234;6.754;2023-04-26T07:18:30;101405.84;;;12.69;62.44
28004;BME280;15330;51.234;6.754;2023-04-26T07:20:56;101413.28;;;12.41;61.41
28004;BME280;15330;51.234;6.754;2023-04-26T07:23:21;101410.28;;;12.94;61.92
28004;BME280;15330;51.234;6.754;2023-04-26T07:25:47;101416.63;;;11.83;61.38
28004;BME280;15330;51.234;6.754;2023-04-26T07:28:12;101421.78;;;12.02;64.64
28004;BME280;15330;51.234;6.754;2023-04-26T07:30:38;101416.28;;;11.68;64.96
28004;BME280;15330;51.234;6.754;2023-04-26T07:33:03;101407.41;;;11.68;65.00
28004;BME280;15330;51.234;6.754;2023-04-26T07:35:28;101412.31;;;11.72;63.00
28004;BME280;15330;51.234;6.754;2023-04-26T07:37:54;101419.44;;;11.64;63.13
28004;BME280;15330;51.234;6.754;2023-04-26T07:40:19;101413.41;;;12.31;63.27
28004;BME280;15330;51.234;6.754;2023-04-26T07:42:46;101413.94;;;11.12;61.52
28004;BME280;15330;51.234;6.754;2023-04-26T07:45:12;101416.31;;;11.51;63.50
28004;BME280;15330;51.234;6.754;2023-04-26T07:47:37;101417.50;;;11.74;60.62
28004;BME280;15330;51.234;6.754;2023-04-26T07:50:03;101418.59;;;12.07;60.94
28004;BME280;15330;51.234;6.754;2023-04-26T07:52:29;101411.03;;;12.28;62.11
28004;BME280;15330;51.234;6.754;2023-04-26T07:54:54;101416.16;;;11.34;62.36
28004;BME280;15330;51.234;6.754;2023-04-26T07:57:20;101418.06;;;11.60;61.34
28004;BME280;15330;51.234;6.754;2023-04-26T07:59:45;101414.25;;;11.45;59.34
28004;BME280;15330;51.234;6.754;2023-04-26T08:02:10;101409.66;;;10.56;64.14
28004;BME280;15330;51.234;6.754;2023-04-26T08:04:36;101407.97;;;11.36;62.73
28004;BME280;15330;51.234;6.754;2023-04-26T08:07:01;101409.94;;;11.69;61.87
28004;BME280;15330;51.234;6.754;2023-04-26T08:09:28;101408.47;;;11.31;61.57
28004;BME280;15330;51.234;6.754;2023-04-26T08:11:55;101394.03;;;11.32;61.01
28004;BME280;15330;51.234;6.754;2023-04-26T08:14:20;101407.03;;;11.63;59.88
28004;BME280;15330;51.234;6.754;2023-04-26T08:16:46;101410.59;;;12.15;60.92
28004;BME280;15330;51.234;6.754;2023-04-26T08:19:11;101414.19;;;11.36;58.05
28004;BME280;15330;51.234;6.754;2023-04-26T08:21:37;101406.59;;;11.32;60.28
28004;BME280;15330;51.234;6.754;2023-04-26T08:24:02;101415.25;;;11.79;58.34
28004;BME280;15330;51.234;6.754;2023-04-26T08:26:27;101403.09;;;11.31;59.92
28004;BME280;15330;51.234;6.754;2023-04-26T08:28:53;101409.69;;;11.63;58.69
28004;BME280;15330;51.234;6.754;2023-04-26T08:31:18;101409.56;;;11.64;56.89
28004;BME280;15330;51.234;6.754;2023-04-26T08:33:44;101405.31;;;11.97;56.57
28004;BME280;15330;51.234;6.754;2023-04-26T08:36:09;101411.19;;;11.75;56.04
28004;BME280;15330;51.234;6.754;2023-04-26T08:38:35;101415.38;;;11.42;56.13
28004;BME280;15330;51.234;6.754;2023-04-26T08:41:01;101416.31;;;10.70;58.51
28004;BME280;15330;51.234;6.754;2023-04-26T08:43:27;101409.72;;;11.45;58.13
28004;BME280;15330;51.234;6.754;2023-04-26T08:45:53;101414.25;;;11.62;57.91
28004;BME280;15330;51.234;6.754;2023-04-26T08:48:19;101409.72;;;10.92;56.79
28004;BME280;15330;51.234;6.754;2023-04-26T08:50:46;101415.00;;;11.01;56.35
28004;BME280;15330;51.234;6.754;2023-04-26T08:53:15;101419.97;;;10.42;57.82
28004;BME280;15330;51.234;6.754;2023-04-26T08:55:48;101411.31;;;10.30;56.78
28004;BME280;15330;51.234;6.754;2023-04-26T08:58:14;101409.78;;;10.27;57.85
28004;BME280;15330;51.234;6.754;2023-04-26T09:00:42;101415.19;;;10.45;58.50
28004;BME280;15330;51.234;6.754;2023-04-26T09:03:09;101413.34;;;11.36;56.93
28004;BME280;15330;51.234;6.754;2023-04-26T09:05:35;101418.22;;;11.05;56.95
28004;BME280;15330;51.234;6.754;2023-04-26T09:08:03;101424.72;;;10.20;57.67
28004;BME280;15330;51.234;6.754;2023-04-26T09:10:31;101420.47;;;10.27;57.61
28004;BME280;15330;51.234;6.754;2023-04-26T09:12:57;101415.72;;;10.49;57.53
28004;BME280;15330;51.234;6.754;2023-04-26T09:15:24;101417.59;;;11.11;58.90
28004;BME280;15330;51.234;6.754;2023-04-26T09:17:51;101418.59;;;11.63;59.24
28004;BME280;15330;51.234;6.754;2023-04-26T09:20:28;101421.03;;;11.92;57.30
28004;BME280;15330;51.234;6.754;2023-04-26T09:23:04;101421.25;;;11.63;57.19
28004;BME280;15330;51.234;6.754;2023-04-26T09:25:31;101407.75;;;12.93;55.25
28004;BME280;15330;51.234;6.754;2023-04-26T09:27:57;101403.97;;;13.19;52.57
28004;BME280;15330;51.234;6.754;2023-04-26T09:30:24;101410.22;;;13.77;51.80
28004;BME280;15330;51.234;6.754;2023-04-26T09:32:54;101402.13;;;13.85;49.14
28004;BME280;15330;51.234;6.754;2023-04-26T09:35:24;101397.31;;;12.73;50.07
28004;BME280;15330;51.234;6.754;2023-04-26T09:43:02;101394.19;;;12.18;52.25
28004;BME280;15330;51.234;6.754;2023-04-26T09:45:30;101385.16;;;11.50;53.35
28004;BME280;15330;51.234;6.754;2023-04-26T09:48:15;101388.31;;;11.89;51.11
28004;BME280;15330;51.234;6.754;2023-04-26T09:50:41;101388.94;;;12.84;49.79
28004;BME280;15330;51.234;6.754;2023-04-26T09:53:07;101379.78;;;12.53;47.27
28004;BME280;15330;51.234;6.754;2023-04-26T09:55:33;101382.75;;;12.84;46.87
28004;BME280;15330;51.234;6.754;2023-04-26T09:57:58;101380.81;;;12.26;46.19
28004;BME280;15330;51.234;6.754;2023-04-26T10:00:26;101375.63;;;12.67;44.95
28004;BME280;15330;51.234;6.754;2023-04-26T10:02:53;101382.31;;;13.29;46.02
28004;BME280;15330;51.234;6.754;2023-04-26T10:05:19;101375.78;;;13.80;47.03
28004;BME280;15330;51.234;6.754;2023-04-26T10:07:46;101368.38;;;13.74;48.11
28004;BME280;15330;51.234;6.754;2023-04-26T10:10:11;101378.28;;;12.59;48.02
28004;BME280;15330;51.234;6.754;2023-04-26T10:12:37;101378.75;;;13.04;47.76
28004;BME280;15330;51.234;6.754;2023-04-26T10:15:05;101383.31;;;12.20;47.94
28004;BME280;15330;51.234;6.754;2023-04-26T10:17:32;101377.72;;;12.39;49.66
28004;BME280;15330;51.234;6.754;2023-04-26T10:19:58;101378.06;;;12.86;50.63
28004;BME280;15330;51.234;6.754;2023-04-26T10:22:28;101380.63;;;12.54;48.75
28004;BME280;15330;51.234;6.754;2023-04-26T10:24:55;101382.78;;;12.50;49.69
28004;BME280;15330;51.234;6.754;2023-04-26T10:30:11;101377.72;;;12.47;50.02
28004;BME280;15330;51.234;6.754;2023-04-26T10:35:27;101384.50;;;11.91;50.56
28004;BME280;15330;51.234;6.754;2023-04-26T10:40:42;101376.53;;;12.07;50.98
28004;BME280;15330;51.234;6.754;2023-04-26T10:45:35;101374.88;;;12.40;49.41
28004;BME280;15330;51.234;6.754;2023-04-26T10:48:30;101370.19;;;13.09;49.56
28004;BME280;15330;51.234;6.754;2023-04-26T10:53:24;101366.75;;;14.12;48.19
28004;BME280;15330;51.234;6.754;2023-04-26T10:55:49;101366.22;;;13.45;47.17
28004;BME280;15330;51.234;6.754;2023-04-26T11:03:35;101365.94;;;11.98;45.07
28004;BME280;15330;51.234;6.754;2023-04-26T11:06:05;101360.75;;;12.30;45.59
28004;BME280;15330;51.234;6.754;2023-04-26T11:08:31;101359.66;;;13.15;46.75
28004;BME280;15330;51.234;6.754;2023-04-26T11:11:10;101360.41;;;12.83;46.48
28004;BME280;15330;51.234;6.754;2023-04-26T11:13:38;101361.16;;;12.52;47.47
28004;BME280;15330;51.234;6.754;2023-04-26T11:16:11;101360.47;;;12.49;47.65
28004;BME280;15330;51.234;6.754;2023-04-26T11:18:38;101350.16;;;11.69;49.11
28004;BME280;15330;51.234;6.754;2023-04-26T11:21:05;101360.69;;;11.88;49.06
28004;BME280;15330;51.234;6.754;2023-04-26T11:23:31;101354.88;;;11.75;50.47
28004;BME280;15330;51.234;6.754;2023-04-26T11:25:58;101358.31;;;12.11;51.27
28004;BME280;15330;51.234;6.754;2023-04-26T11:28:23;101351.22;;;12.02;47.11
28004;BME280;15330;51.234;6.754;2023-04-26T11:30:49;101353.22;;;11.56;46.82
28004;BME280;15330;51.234;6.754;2023-04-26T11:33:18;101350.63;;;11.21;46.92
28004;BME280;15330;51.234;6.754;2023-04-26T11:35:52;101343.28;;;12.26;46.62
28004;BME280;15330;51.234;6.754;2023-04-26T11:38:20;101345.75;;;12.62;46.78
28004;BME280;15330;51.234;6.754;2023-04-26T11:41:01;101348.59;;;12.52;44.34
28004;BME280;15330;51.234;6.754;2023-04-26T11:43:39;101349.84;;;11.54;45.75
28004;BME280;15330;51.234;6.754;2023-04-26T11:46:06;101340.81;;;12.41;45.87
28004;BME280;15330;51.234;6.754;2023-04-26T11:48:33;101341.03;;;11.80;45.70
28004;BME280;15330;51.234;6.754;2023-04-26T11:51:02;101335.09;;;12.94;46.54
28004;BME280;15330;51.234;6.754;2023-04-26T11:53:38;101336.63;;;13.62;44.64
28004;BME280;15330;51.234;6.754;2023-04-26T11:58:51;101325.41;;;13.17;44.62
28004;BME280;15330;51.234;6.754;2023-04-26T12:01:27;101332.28;;;13.44;44.98
28004;BME280;15330;51.234;6.754;2023-04-26T12:03:56;101334.25;;;12.85;44.03
28004;BME280;15330;51.234;6.754;2023-04-26T12:06:40;101339.81;;;13.65;43.19
28004;BME280;15330;51.234;6.754;2023-04-26T12:09:06;101341.06;;;14.02;42.12
28004;BME280;15330;51.234;6.754;2023-04-26T12:11:36;101334.06;;;13.84;41.62
28004;BME280;15330;51.234;6.754;2023-04-26T12:14:02;101332.28;;;14.16;41.70
28004;BME280;15330;51.234;6.754;2023-04-26T12:16:27;101343.13;;;14.47;41.48
28004;BME280;15330;51.234;6.754;2023-04-26T12:18:54;101332.84;;;14.03;41.87
28004;BME280;15330;51.234;6.754;2023-04-26T12:21:21;101333.94;;;14.25;42.01
28004;BME280;15330;51.234;6.754;2023-04-26T12:23:46;101347.38;;;14.41;40.95
28004;BME280;15330;51.234;6.754;2023-04-26T12:26:13;101339.66;;;14.30;41.40
28004;BME280;15330;51.234;6.754;2023-04-26T12:28:39;101342.00;;;14.25;40.97
28004;BME280;15330;51.234;6.754;2023-04-26T12:31:05;101333.31;;;13.35;42.28
28004;BME280;15330;51.234;6.754;2023-04-26T12:33:32;101326.88;;;14.24;41.69
28004;BME280;15330;51.234;6.754;2023-04-26T12:36:05;101327.41;;;13.48;42.06
28004;BME280;15330;51.234;6.754;2023-04-26T12:38:30;101324.94;;;14.02;42.09
28004;BME280;15330;51.234;6.754;2023-04-26T12:40:56;101327.25;;;14.13;41.44
28004;BME280;15330;51.234;6.754;2023-04-26T12:43:22;101326.84;;;14.40;44.16
28004;BME280;15330;51.234;6.754;2023-04-26T12:45:50;101329.75;;;13.43;41.43
28004;BME280;15330;51.234;6.754;2023-04-26T12:48:15;101338.16;;;13.32;44.92
28004;BME280;15330;51.234;6.754;2023-04-26T12:50:41;101334.16;;;13.28;41.21
28004;BME280;15330;51.234;6.754;2023-04-26T12:53:06;101323.31;;;13.84;42.58
28004;BME280;15330;51.234;6.754;2023-04-26T12:55:32;101324.91;;;14.18;43.10
28004;BME280;15330;51.234;6.754;2023-04-26T12:57:57;101329.28;;;13.47;41.75
28004;BME280;15330;51.234;6.754;2023-04-26T13:00:23;101326.06;;;13.19;42.76
28004;BME280;15330;51.234;6.754;2023-04-26T13:02:48;101329.09;;;12.42;42.71
28004;BME280;15330;51.234;6.754;2023-04-26T13:05:13;101324.88;;;12.31;43.09
28004;BME280;15330;51.234;6.754;2023-04-26T13:07:41;101325.22;;;13.43;45.50
28004;BME280;15330;51.234;6.754;2023-04-26T13:10:08;101326.41;;;14.12;42.64
28004;BME280;15330;51.234;6.754;2023-04-26T13:12:35;101321.19;;;14.58;44.42
28004;BME280;15330;51.234;6.754;2023-04-26T13:15:00;101332.84;;;14.11;39.51
28004;BME280;15330;51.234;6.754;2023-04-26T13:17:26;101335.28;;;13.66;41.14